createdAt,value
2023-05-16T00:02:16.591Z,18.60
2023-05-16T00:04:46.065Z,21.00
2023-05-16T00:07:14.351Z,18.23
2023-05-16T00:09:41.929Z,21.77
2023-05-16T00:12:09.659Z,19.60
2023-05-16T00:14:37.822Z,19.67
2023-05-16T00:17:11.539Z,21.17
2023-05-16T00:19:40.197Z,19.13
2023-05-16T00:22:09.094Z,19.10
2023-05-16T00:24:36.577Z,18.67
2023-05-16T00:27:04.614Z,20.90
2023-05-16T00:29:32.230Z,19.83
2023-05-16T00:31:59.728Z,19.53
2023-05-16T00:34:27.344Z,21.00
2023-05-16T00:36:55.138Z,19.93
2023-05-16T00:39:24.137Z,19.20
2023-05-16T00:41:51.961Z,19.60
2023-05-16T00:44:19.427Z,19.00
2023-05-16T00:46:47.315Z,21.03
2023-05-16T00:49:14.887Z,18.80
2023-05-16T00:51:42.685Z,19.40
2023-05-16T00:54:10.270Z,19.70
2023-05-16T00:56:39.624Z,18.93
2023-05-16T00:59:07.140Z,18.40
2023-05-16T01:01:34.879Z,18.53
2023-05-16T01:04:02.441Z,20.60
2023-05-16T01:06:30.140Z,20.60
2023-05-16T01:08:57.650Z,18.50
2023-05-16T01:11:29.578Z,20.80
2023-05-16T01:14:04.055Z,19.67
2023-05-16T01:16:35.380Z,18.67
2023-05-16T01:19:09.265Z,19.80
2023-05-16T01:21:44.914Z,18.53
2023-05-16T01:24:16.599Z,18.67
2023-05-16T01:26:45.896Z,19.50
2023-05-16T01:29:13.595Z,18.20
2023-05-16T01:31:41.182Z,19.17
2023-05-16T01:34:08.883Z,18.50
2023-05-16T01:36:40.864Z,17.27
2023-05-16T01:39:13.941Z,16.80
2023-05-16T01:41:49.331Z,18.97
2023-05-16T01:44:22.849Z,17.10
2023-05-16T01:46:54.260Z,19.60
2023-05-16T01:49:26.529Z,18.13
2023-05-16T01:51:57.127Z,19.47
2023-05-16T01:54:26.326Z,18.70
2023-05-16T01:56:56.139Z,17.30
2023-05-16T01:59:25.456Z,18.70
2023-05-16T02:01:54.420Z,16.90
2023-05-16T02:04:22.430Z,16.30
2023-05-16T02:06:50.352Z,17.10
2023-05-16T02:09:17.912Z,17.27
2023-05-16T02:11:46.736Z,16.70
2023-05-16T02:14:15.922Z,17.30
2023-05-16T02:16:43.437Z,16.10
2023-05-16T02:19:10.963Z,16.93
2023-05-16T02:21:38.485Z,17.10
2023-05-16T02:24:06.384Z,16.50
2023-05-16T02:26:34.055Z,17.90
2023-05-16T02:29:01.586Z,15.27
2023-05-16T02:31:31.736Z,16.90
2023-05-16T02:34:00.224Z,16.67
2023-05-16T02:36:27.744Z,15.67
2023-05-16T02:38:55.244Z,17.97
2023-05-16T02:41:23.170Z,16.97
2023-05-16T02:43:50.773Z,17.13
2023-05-16T02:46:22.706Z,17.60
2023-05-16T02:48:52.043Z,17.80
2023-05-16T02:51:20.782Z,15.73
2023-05-16T02:53:48.364Z,14.87
2023-05-16T02:56:15.851Z,14.70
2023-05-16T02:58:43.655Z,15.40
2023-05-16T03:01:11.218Z,16.93
2023-05-16T03:03:38.768Z,15.97
2023-05-16T03:06:07.925Z,15.60
2023-05-16T03:08:36.019Z,16.87
2023-05-16T03:11:03.516Z,14.70
2023-05-16T03:13:31.037Z,16.57
2023-05-16T03:15:58.582Z,15.40
2023-05-16T03:18:26.248Z,13.83
2023-05-16T03:20:54.012Z,15.40
2023-05-16T03:23:23.346Z,15.70
2023-05-16T03:25:50.923Z,16.90
2023-05-16T03:28:18.813Z,16.23
2023-05-16T03:30:46.587Z,14.50
2023-05-16T03:33:14.190Z,16.37
2023-05-16T03:35:42.087Z,16.00
2023-05-16T03:38:10.037Z,16.40
2023-05-16T03:40:38.929Z,16.97
2023-05-16T03:43:06.500Z,14.30
2023-05-16T03:45:34.097Z,14.37
2023-05-16T03:48:01.757Z,14.30
2023-05-16T03:50:29.391Z,14.40
2023-05-16T03:52:56.921Z,14.97
2023-05-16T03:55:24.649Z,16.63
2023-05-16T03:57:53.461Z,14.17
2023-05-16T04:00:20.934Z,13.93
2023-05-16T04:02:48.537Z,13.57
2023-05-16T04:05:16.414Z,14.50
2023-05-16T04:07:43.922Z,13.83
2023-05-16T04:10:12.373Z,12.90
2023-05-16T04:12:39.896Z,13.00
2023-05-16T04:15:09.695Z,11.57
2023-05-16T04:17:37.312Z,11.23
2023-05-16T04:20:05.359Z,10.30
2023-05-16T04:22:32.859Z,10.03
2023-05-16T04:25:00.551Z,10.33
2023-05-16T04:27:28.024Z,9.67
2023-05-16T04:29:56.171Z,10.67
2023-05-16T04:32:24.997Z,8.77
2023-05-16T04:34:53.233Z,8.33
2023-05-16T04:37:20.757Z,8.30
2023-05-16T04:39:48.195Z,8.50
2023-05-16T04:42:16.341Z,6.97
2023-05-16T04:44:44.008Z,6.13
2023-05-16T04:47:11.606Z,6.30
2023-05-16T04:49:40.550Z,6.60
2023-05-16T04:52:09.793Z,5.43
2023-05-16T04:54:37.244Z,4.97
2023-05-16T04:57:04.905Z,4.80
2023-05-16T04:59:32.424Z,3.87
2023-05-16T05:01:59.939Z,3.50
2023-05-16T05:04:27.489Z,3.23
2023-05-16T05:06:56.633Z,2.60
2023-05-16T05:09:24.454Z,2.40
2023-05-16T05:11:52.313Z,2.50
2023-05-16T05:14:19.809Z,2.20
2023-05-16T05:16:47.325Z,2.20
2023-05-16T05:19:14.826Z,1.73
2023-05-16T05:21:42.411Z,2.20
2023-05-16T05:24:11.386Z,1.77
2023-05-16T05:26:38.934Z,1.63
2023-05-16T05:29:06.570Z,2.23
2023-05-16T05:31:34.802Z,1.60
2023-05-16T05:34:02.534Z,2.30
2023-05-16T05:36:30.875Z,1.80
2023-05-16T05:38:58.665Z,1.30
2023-05-16T05:41:27.696Z,1.60
2023-05-16T05:43:55.187Z,1.70
2023-05-16T05:46:22.792Z,1.60
2023-05-16T05:48:50.534Z,1.50
2023-05-16T05:51:18.048Z,1.70
2023-05-16T05:53:45.736Z,1.47
2023-05-16T05:56:13.214Z,2.30
2023-05-16T05:58:42.423Z,1.83
2023-05-16T06:01:11.549Z,1.77
2023-05-16T06:03:39.083Z,1.60
2023-05-16T06:06:07.136Z,1.70
2023-05-16T06:08:34.578Z,1.60
2023-05-16T06:11:02.544Z,0.97
2023-05-16T06:13:30.042Z,1.30
2023-05-16T06:15:58.862Z,1.00
2023-05-16T06:18:26.400Z,1.47
2023-05-16T06:20:54.021Z,1.00
2023-05-16T06:23:22.001Z,0.93
2023-05-16T06:25:49.940Z,0.80
2023-05-16T06:28:17.491Z,1.03
2023-05-16T06:30:45.014Z,0.90
2023-05-16T06:33:15.505Z,0.80
2023-05-16T06:35:43.126Z,0.80
2023-05-16T06:38:10.685Z,1.07
2023-05-16T06:40:38.362Z,0.80
2023-05-16T06:43:06.033Z,0.80
2023-05-16T06:45:33.585Z,0.70
2023-05-16T06:48:01.380Z,0.60
2023-05-16T06:50:30.359Z,0.70
2023-05-16T06:52:57.907Z,0.80
2023-05-16T06:55:25.559Z,0.90
2023-05-16T06:57:53.201Z,0.60
2023-05-16T07:00:21.820Z,0.50
2023-05-16T07:02:49.626Z,0.60
2023-05-16T07:05:17.279Z,0.70
2023-05-16T07:07:46.647Z,0.60
2023-05-16T07:10:14.126Z,0.60
2023-05-16T07:12:43.024Z,0.70
2023-05-16T07:15:11.503Z,0.83
2023-05-16T07:17:39.087Z,0.77
2023-05-16T07:20:08.204Z,0.50
2023-05-16T07:22:36.223Z,0.70
2023-05-16T07:25:05.786Z,0.60
2023-05-16T07:27:33.297Z,0.57
2023-05-16T07:30:01.062Z,0.77
2023-05-16T07:32:28.649Z,0.60
2023-05-16T07:34:56.167Z,0.43
2023-05-16T07:37:23.673Z,0.40
2023-05-16T07:39:51.191Z,0.50
2023-05-16T07:42:20.074Z,0.40
2023-05-16T07:44:47.655Z,0.40
2023-05-16T07:47:15.688Z,0.40
2023-05-16T07:49:43.459Z,0.50
2023-05-16T07:52:11.144Z,0.60
2023-05-16T07:54:39.054Z,0.57
2023-05-16T07:57:07.173Z,0.50
2023-05-16T07:59:36.094Z,0.40
2023-05-16T08:02:03.820Z,0.50
2023-05-16T08:04:31.331Z,0.40
2023-05-16T08:06:58.826Z,0.50
2023-05-16T08:09:26.358Z,0.47
2023-05-16T08:11:53.946Z,0.60
2023-05-16T08:14:21.519Z,0.50
2023-05-16T08:16:50.549Z,0.60
2023-05-16T08:19:18.092Z,0.50
2023-05-16T08:21:45.823Z,0.40
2023-05-16T08:24:13.354Z,0.63
2023-05-16T08:26:40.889Z,0.53
2023-05-16T08:29:08.400Z,0.63
2023-05-16T08:31:36.001Z,0.70
2023-05-16T08:34:06.404Z,0.70
2023-05-16T08:36:35.537Z,0.63
2023-05-16T08:39:03.217Z,0.50
2023-05-16T08:41:30.853Z,0.50
2023-05-16T08:43:58.435Z,0.70
2023-05-16T08:46:26.928Z,0.70
2023-05-16T08:48:55.026Z,0.53
2023-05-16T08:51:26.579Z,0.80
2023-05-16T08:53:57.154Z,0.97
2023-05-16T08:56:25.788Z,0.70
2023-05-16T08:58:57.260Z,0.70
2023-05-16T09:01:25.059Z,0.80
2023-05-16T09:03:53.307Z,0.90
2023-05-16T09:06:20.948Z,0.80
2023-05-16T09:08:50.148Z,0.70
2023-05-16T09:11:17.674Z,0.60
2023-05-16T09:13:45.525Z,0.80
2023-05-16T09:16:13.972Z,0.70
2023-05-16T09:18:42.402Z,0.60
2023-05-16T09:21:11.181Z,0.90
2023-05-16T09:23:38.755Z,0.97
2023-05-16T09:26:08.352Z,1.13
2023-05-16T09:28:38.525Z,1.27
2023-05-16T09:31:07.194Z,1.03
2023-05-16T09:33:34.864Z,0.87
2023-05-16T09:36:03.792Z,0.70
2023-05-16T09:38:31.385Z,1.03
2023-05-16T09:40:58.936Z,0.80
2023-05-16T09:43:28.029Z,1.10
2023-05-16T09:45:56.129Z,0.97
2023-05-16T09:48:23.778Z,0.70
2023-05-16T09:50:53.330Z,0.80
2023-05-16T09:53:28.409Z,1.00
2023-05-16T09:56:03.387Z,1.53
2023-05-16T09:58:33.581Z,1.43
2023-05-16T10:01:01.663Z,1.10
2023-05-16T10:03:29.689Z,1.00
2023-05-16T10:05:57.414Z,1.00
2023-05-16T10:08:26.694Z,1.00
2023-05-16T10:10:56.467Z,1.27
2023-05-16T10:13:25.800Z,1.07
2023-05-16T10:15:57.100Z,1.20
2023-05-16T10:18:30.799Z,1.00
2023-05-16T10:21:09.643Z,1.20
2023-05-16T10:23:40.552Z,1.10
2023-05-16T10:26:08.673Z,1.40
2023-05-16T10:28:37.125Z,1.53
2023-05-16T10:31:06.780Z,1.30
2023-05-16T10:33:34.558Z,1.17
2023-05-16T10:36:03.637Z,1.10
2023-05-16T10:38:31.463Z,1.40
2023-05-16T10:40:59.150Z,1.93
2023-05-16T10:43:27.918Z,1.30
2023-05-16T10:45:56.901Z,1.27
2023-05-16T10:48:32.962Z,1.60
2023-05-16T10:51:00.734Z,1.53
2023-05-16T10:53:32.230Z,1.50
2023-05-16T10:56:10.386Z,1.07
2023-05-16T10:58:45.715Z,0.90
2023-05-16T11:01:17.995Z,1.37
2023-05-16T11:04:12.034Z,1.40
2023-05-16T11:06:47.669Z,1.07
2023-05-16T11:09:23.556Z,3.10
2023-05-16T11:12:00.022Z,0.90
2023-05-16T11:14:30.397Z,1.40
2023-05-16T11:17:02.636Z,1.50
2023-05-16T11:19:36.370Z,2.33
2023-05-16T11:22:11.706Z,1.20
2023-05-16T11:24:40.713Z,0.93
2023-05-16T11:27:08.336Z,0.97
2023-05-16T11:29:37.446Z,1.10
2023-05-16T11:32:06.044Z,1.00
2023-05-16T11:34:38.662Z,1.40
2023-05-16T11:37:06.722Z,1.23
2023-05-16T11:39:34.540Z,1.13
2023-05-16T11:42:02.430Z,1.93
2023-05-16T11:44:29.952Z,0.97
2023-05-16T11:46:57.553Z,1.17
2023-05-16T11:49:26.926Z,1.10
2023-05-16T11:51:57.494Z,1.20
2023-05-16T11:54:25.217Z,1.23
2023-05-16T11:56:52.849Z,1.27
2023-05-16T11:59:20.858Z,0.90
2023-05-16T12:01:50.428Z,1.90
2023-05-16T12:04:20.295Z,1.40
2023-05-16T12:07:01.156Z,1.60
2023-05-16T12:09:28.773Z,1.00
2023-05-16T12:11:56.362Z,1.30
2023-05-16T12:14:24.057Z,1.27
2023-05-16T12:16:53.132Z,0.70
2023-05-16T12:19:21.637Z,0.70
2023-05-16T12:21:49.388Z,1.10
2023-05-16T12:24:18.572Z,1.07
2023-05-16T12:26:46.359Z,1.43
2023-05-16T12:29:14.381Z,0.77
2023-05-16T12:31:42.302Z,0.90
2023-05-16T12:34:17.687Z,0.80
2023-05-16T12:36:45.436Z,1.17
2023-05-16T12:39:14.386Z,1.10
2023-05-16T12:41:44.062Z,1.13
2023-05-16T12:44:17.348Z,1.00
2023-05-16T12:46:46.636Z,0.83
2023-05-16T12:49:14.645Z,0.87
2023-05-16T12:51:42.520Z,0.83
2023-05-16T12:54:11.635Z,0.80
2023-05-16T12:56:40.028Z,1.07
2023-05-16T12:59:09.077Z,0.60
2023-05-16T13:01:37.336Z,0.60
2023-05-16T13:04:05.805Z,0.90
2023-05-16T13:06:48.840Z,1.03
2023-05-16T13:09:22.404Z,0.90
2023-05-16T13:11:50.499Z,1.30
2023-05-16T13:14:19.390Z,1.00
2023-05-16T13:16:47.006Z,0.73
2023-05-16T13:19:14.891Z,0.83
2023-05-16T13:21:42.495Z,0.90
2023-05-16T13:24:14.999Z,1.10
2023-05-16T13:26:42.510Z,1.03
2023-05-16T13:29:11.700Z,0.90
2023-05-16T13:31:40.663Z,0.60
2023-05-16T13:34:08.300Z,1.67
2023-05-16T13:36:52.288Z,1.23
2023-05-16T13:39:22.251Z,0.60
2023-05-16T13:41:50.196Z,1.17
2023-05-16T13:44:18.096Z,0.60
2023-05-16T13:46:46.976Z,1.10
2023-05-16T13:49:14.546Z,0.97
2023-05-16T13:51:42.128Z,0.53
2023-05-16T13:54:09.805Z,1.10
2023-05-16T13:56:37.319Z,0.90
2023-05-16T13:59:07.183Z,0.90
2023-05-16T14:01:36.364Z,0.70
2023-05-16T14:04:05.769Z,0.77
2023-05-16T14:06:33.384Z,1.30
2023-05-16T14:09:01.077Z,0.70
2023-05-16T14:11:29.571Z,0.70
2023-05-16T14:13:57.384Z,0.80
2023-05-16T14:16:25.001Z,0.60
2023-05-16T14:18:52.736Z,0.77
2023-05-16T14:21:21.599Z,1.03
2023-05-16T14:23:49.196Z,0.60
2023-05-16T14:26:18.338Z,0.70
2023-05-16T14:28:45.908Z,0.97
2023-05-16T14:31:13.385Z,0.70
2023-05-16T14:33:43.062Z,1.07
2023-05-16T14:36:10.805Z,0.83
2023-05-16T14:38:40.004Z,1.07
2023-05-16T14:41:07.547Z,0.90
2023-05-16T14:43:35.252Z,0.60
2023-05-16T14:46:03.005Z,0.70
2023-05-16T14:48:31.226Z,0.70
2023-05-16T14:50:58.751Z,0.90
2023-05-16T14:53:26.600Z,0.70
2023-05-16T14:55:56.952Z,1.10
2023-05-16T14:58:27.112Z,1.00
2023-05-16T15:00:54.757Z,0.73
2023-05-16T15:03:25.133Z,0.87
2023-05-16T15:05:54.732Z,0.70
2023-05-16T15:08:22.338Z,0.80
2023-05-16T15:10:51.475Z,1.03
2023-05-16T15:13:20.469Z,0.83
2023-05-16T15:15:54.493Z,0.90
2023-05-16T15:18:24.068Z,0.70
2023-05-16T15:20:57.338Z,0.60
2023-05-16T15:23:25.026Z,0.60
2023-05-16T15:26:01.167Z,0.87
2023-05-16T15:28:30.153Z,0.80
2023-05-16T15:30:57.673Z,0.70
2023-05-16T15:33:25.541Z,1.03
2023-05-16T15:35:53.094Z,1.00
2023-05-16T15:38:20.896Z,0.60
2023-05-16T15:40:52.659Z,0.70
2023-05-16T15:43:22.704Z,0.70
2023-05-16T15:45:51.601Z,0.60
2023-05-16T15:48:19.460Z,0.90
2023-05-16T15:50:47.033Z,0.70
2023-05-16T15:53:14.553Z,0.70
2023-05-16T15:55:42.565Z,0.70
2023-05-16T15:58:10.088Z,0.50
2023-05-16T16:00:37.586Z,0.80
2023-05-16T16:03:06.586Z,0.60
2023-05-16T16:05:34.269Z,0.63
2023-05-16T16:08:01.792Z,0.93
2023-05-16T16:10:29.319Z,0.60
2023-05-16T16:13:00.103Z,0.87
2023-05-16T16:15:28.936Z,0.60
2023-05-16T16:17:59.045Z,0.80
2023-05-16T16:20:28.344Z,0.70
2023-05-16T16:22:55.863Z,0.70
2023-05-16T16:25:23.409Z,0.70
2023-05-16T16:27:51.507Z,0.80
2023-05-16T16:30:19.057Z,1.30
2023-05-16T16:32:48.523Z,1.00
2023-05-16T16:35:16.405Z,0.63
2023-05-16T16:38:01.988Z,0.90
2023-05-16T16:40:33.670Z,0.67
2023-05-16T16:43:01.268Z,0.80
2023-05-16T16:45:29.281Z,0.70
2023-05-16T16:47:57.981Z,0.67
2023-05-16T16:50:25.736Z,1.23
2023-05-16T16:52:54.803Z,0.80
2023-05-16T16:55:22.888Z,1.20
2023-05-16T16:57:50.444Z,1.13
2023-05-16T17:00:18.488Z,1.10
2023-05-16T17:02:46.093Z,1.27
2023-05-16T17:05:13.799Z,0.73
2023-05-16T17:07:41.328Z,0.67
2023-05-16T17:10:11.208Z,0.70
2023-05-16T17:12:44.403Z,0.83
2023-05-16T17:15:12.595Z,0.60
2023-05-16T17:17:40.104Z,0.60
2023-05-16T17:20:09.028Z,1.10
2023-05-16T17:22:36.804Z,1.00
2023-05-16T17:25:04.755Z,1.30
2023-05-16T17:27:33.712Z,0.90
2023-05-16T17:30:01.405Z,0.87
2023-05-16T17:32:29.214Z,1.00
2023-05-16T17:34:56.911Z,1.70
2023-05-16T17:37:24.440Z,2.27
2023-05-16T17:39:52.275Z,1.40
2023-05-16T17:42:19.852Z,1.20
2023-05-16T17:44:48.869Z,0.80
2023-05-16T17:47:16.605Z,1.70
2023-05-16T17:49:44.530Z,1.43
2023-05-16T17:52:12.055Z,1.70
2023-05-16T17:54:39.587Z,1.07
2023-05-16T17:57:07.132Z,0.70
2023-05-16T17:59:34.811Z,0.70
2023-05-16T18:02:04.135Z,1.77
2023-05-16T18:04:31.804Z,2.80
2023-05-16T18:07:00.211Z,0.90
2023-05-16T18:09:28.622Z,1.00
2023-05-16T18:11:56.364Z,0.70
2023-05-16T18:14:24.020Z,0.60
2023-05-16T18:16:51.541Z,0.83
2023-05-16T18:19:20.555Z,0.97
2023-05-16T18:21:48.141Z,1.03
2023-05-16T18:24:16.414Z,0.90
2023-05-16T18:26:46.425Z,0.93
2023-05-16T18:29:14.060Z,0.90
2023-05-16T18:31:42.360Z,0.87
2023-05-16T18:34:10.307Z,0.90
2023-05-16T18:36:39.260Z,1.87
2023-05-16T18:39:07.079Z,0.97
2023-05-16T18:41:34.688Z,0.90
2023-05-16T18:44:02.257Z,0.73
2023-05-16T18:46:29.845Z,0.87
2023-05-16T18:48:58.335Z,1.00
2023-05-16T18:51:26.249Z,0.70
2023-05-16T18:53:55.178Z,2.67
2023-05-16T18:56:22.801Z,13.13
2023-05-16T18:58:50.803Z,5.07
2023-05-16T19:01:22.036Z,3.97
2023-05-16T19:03:49.703Z,6.00
2023-05-16T19:06:17.340Z,4.00
2023-05-16T19:08:47.908Z,2.17
2023-05-16T19:11:17.814Z,5.40
2023-05-16T19:13:45.637Z,7.07
2023-05-16T19:16:13.408Z,6.03
2023-05-16T19:18:41.110Z,2.93
2023-05-16T19:21:10.006Z,1.33
2023-05-16T19:23:37.573Z,1.43
2023-05-16T19:26:09.994Z,1.50
2023-05-16T19:28:40.626Z,2.80
2023-05-16T19:31:08.323Z,0.80
2023-05-16T19:33:36.064Z,1.10
2023-05-16T19:36:05.791Z,1.20
2023-05-16T19:38:33.348Z,1.40
2023-05-16T19:41:01.135Z,1.20
2023-05-16T19:43:29.477Z,2.17
2023-05-16T19:45:58.374Z,1.20
2023-05-16T19:48:26.462Z,1.40
2023-05-16T19:50:54.008Z,1.83
2023-05-16T19:53:21.690Z,2.20
2023-05-16T19:55:49.508Z,1.50
2023-05-16T19:58:17.312Z,1.67
2023-05-16T20:00:45.290Z,1.80
2023-05-16T20:03:14.469Z,1.30
2023-05-16T20:05:42.138Z,1.80
2023-05-16T20:08:11.177Z,1.23
2023-05-16T20:10:39.010Z,1.43
2023-05-16T20:13:06.585Z,2.17
2023-05-16T20:15:34.107Z,1.57
2023-05-16T20:18:01.963Z,2.30
2023-05-16T20:20:31.026Z,1.03
2023-05-16T20:22:58.608Z,1.10
2023-05-16T20:25:26.666Z,2.70
2023-05-16T20:27:54.582Z,2.17
2023-05-16T20:30:22.333Z,2.30
2023-05-16T20:32:49.881Z,2.00
2023-05-16T20:35:17.470Z,1.50
2023-05-16T20:37:46.316Z,1.77
2023-05-16T20:40:13.920Z,2.10
2023-05-16T20:42:41.585Z,1.97
2023-05-16T20:45:12.738Z,1.93
2023-05-16T20:47:40.315Z,2.30
2023-05-16T20:50:08.969Z,1.27
2023-05-16T20:52:39.200Z,1.20
2023-05-16T20:55:08.846Z,1.70
2023-05-16T20:57:36.396Z,1.53
2023-05-16T21:00:04.773Z,1.80
2023-05-16T21:02:32.505Z,1.60
2023-05-16T21:05:14.406Z,1.20
2023-05-16T21:07:47.633Z,1.70
2023-05-16T21:10:16.835Z,1.47
2023-05-16T21:12:44.530Z,1.20
2023-05-16T21:15:12.279Z,0.83
2023-05-16T21:17:41.456Z,1.20
2023-05-16T21:20:09.988Z,1.47
2023-05-16T21:22:37.577Z,1.20
2023-05-16T21:25:05.682Z,0.70
2023-05-16T21:27:34.794Z,0.83
2023-05-16T21:30:02.780Z,1.40
2023-05-16T21:32:32.893Z,1.20
2023-05-16T21:35:04.132Z,0.93
2023-05-16T21:37:31.799Z,0.87
2023-05-16T21:39:59.315Z,1.43
2023-05-16T21:42:26.896Z,1.60
2023-05-16T21:44:55.737Z,1.13
2023-05-16T21:47:23.374Z,1.20
2023-05-16T21:49:51.011Z,1.40
2023-05-16T21:52:18.578Z,1.00
2023-05-16T21:54:51.396Z,1.67
2023-05-16T21:57:19.575Z,1.00
2023-05-16T21:59:50.254Z,1.03
2023-05-16T22:02:22.795Z,1.03
2023-05-16T22:04:54.957Z,1.13
2023-05-16T22:07:24.024Z,1.27
2023-05-16T22:09:53.558Z,1.70
2023-05-16T22:12:21.239Z,0.90
2023-05-16T22:14:48.998Z,0.93
2023-05-16T22:17:17.157Z,1.10
2023-05-16T22:19:47.084Z,1.30
2023-05-16T22:22:14.756Z,1.03
2023-05-16T22:24:42.359Z,1.17
2023-05-16T22:27:09.932Z,1.33
2023-05-16T22:29:38.881Z,1.57
2023-05-16T22:32:07.832Z,1.30
2023-05-16T22:34:35.423Z,1.30
2023-05-16T22:37:04.380Z,1.37
2023-05-16T22:39:31.891Z,1.70
2023-05-16T22:42:00.915Z,1.10
2023-05-16T22:44:28.516Z,1.30
2023-05-16T22:46:56.078Z,0.90
2023-05-16T22:49:23.666Z,0.93
2023-05-16T22:51:51.198Z,1.53
2023-05-16T22:54:22.489Z,1.43
2023-05-16T22:56:50.054Z,1.27
2023-05-16T22:59:17.562Z,1.70
2023-05-16T23:01:51.732Z,1.60
2023-05-16T23:04:19.523Z,1.40
2023-05-16T23:06:47.298Z,2.03
2023-05-16T23:09:15.165Z,1.13
2023-05-16T23:11:44.023Z,1.50
2023-05-16T23:14:11.771Z,1.20
2023-05-16T23:16:39.346Z,1.17
2023-05-16T23:19:09.250Z,1.57
2023-05-16T23:21:37.517Z,1.20
2023-05-16T23:24:05.243Z,1.07
2023-05-16T23:26:32.865Z,1.50
2023-05-16T23:29:01.833Z,2.27
2023-05-16T23:31:29.357Z,1.60
2023-05-16T23:33:57.151Z,1.30
2023-05-16T23:36:24.720Z,1.43
2023-05-16T23:38:52.328Z,1.50
2023-05-16T23:41:19.858Z,1.60
2023-05-16T23:43:51.149Z,1.30
2023-05-16T23:46:20.036Z,1.33
2023-05-16T23:48:47.621Z,1.10
2023-05-16T23:51:15.232Z,2.10
2023-05-16T23:53:42.802Z,1.27
2023-05-16T23:56:10.360Z,1.80
2023-05-16T23:58:37.855Z,1.70
